createdAt,value
2018-04-01T00:01:26.479Z,2.20
2018-04-01T00:04:35.963Z,2.20
2018-04-01T00:07:44.708Z,2.30
2018-04-01T00:10:54.325Z,2.20
2018-04-01T00:14:03.919Z,2.30
2018-04-01T00:17:13.054Z,2.30
2018-04-01T00:20:22.593Z,2.30
2018-04-01T00:23:31.370Z,2.30
2018-04-01T00:26:40.442Z,2.30
2018-04-01T00:29:49.218Z,2.30
2018-04-01T00:32:57.915Z,2.40
2018-04-01T00:36:06.420Z,2.30
2018-04-01T00:39:16.104Z,2.30
2018-04-01T00:42:25.767Z,2.40
2018-04-01T00:45:34.561Z,2.30
2018-04-01T00:48:43.437Z,2.40
2018-04-01T00:51:52.342Z,2.40
2018-04-01T00:55:01.204Z,2.40
2018-04-01T00:58:10.732Z,2.50
2018-04-01T01:01:19.447Z,2.50
2018-04-01T01:04:28.527Z,2.50
2018-04-01T01:07:38.362Z,2.50
2018-04-01T01:10:47.617Z,2.50
2018-04-01T01:13:57.167Z,2.50
2018-04-01T01:17:05.899Z,2.50
2018-04-01T01:20:16.211Z,2.50
2018-04-01T01:23:25.209Z,2.50
2018-04-01T01:26:34.635Z,2.50
2018-04-01T01:29:44.682Z,2.50
2018-04-01T01:32:53.923Z,2.50
2018-04-01T01:36:02.657Z,2.50
2018-04-01T01:42:47.907Z,2.60
2018-04-01T01:45:56.661Z,2.60
2018-04-01T01:49:05.835Z,2.60
2018-04-01T01:52:14.455Z,2.60
2018-04-01T01:55:23.425Z,2.60
2018-04-01T01:58:32.242Z,2.60
2018-04-01T02:01:41.899Z,2.70
2018-04-01T02:04:50.811Z,2.70
2018-04-01T02:08:00.474Z,2.70
2018-04-01T02:11:09.096Z,2.80
2018-04-01T02:14:17.936Z,2.80
2018-04-01T02:17:26.968Z,2.80
2018-04-01T02:20:35.846Z,2.80
2018-04-01T02:23:45.240Z,2.80
2018-04-01T02:26:54.233Z,2.80
2018-04-01T02:30:03.785Z,2.80
2018-04-01T02:33:13.361Z,2.80
2018-04-01T02:36:22.197Z,2.80
2018-04-01T02:39:31.778Z,2.80
2018-04-01T02:42:40.498Z,2.80
2018-04-01T02:45:49.239Z,2.80
2018-04-01T02:48:58.951Z,2.80
2018-04-01T02:52:08.060Z,2.80
2018-04-01T02:55:16.977Z,2.80
2018-04-01T02:58:26.649Z,2.80
2018-04-01T03:01:35.746Z,2.80
2018-04-01T03:04:44.532Z,2.80
2018-04-01T03:07:54.071Z,2.90
2018-04-01T03:11:03.067Z,2.90
2018-04-01T03:14:12.063Z,2.90
2018-04-01T03:17:21.806Z,2.90
2018-04-01T03:20:31.790Z,2.90
2018-04-01T03:23:41.270Z,2.90
2018-04-01T03:26:50.269Z,2.90
2018-04-01T03:29:59.792Z,2.90
2018-04-01T03:33:09.322Z,2.90
2018-04-01T03:36:18.987Z,2.90
2018-04-01T03:39:28.940Z,2.90
2018-04-01T03:42:37.826Z,2.90
2018-04-01T03:45:47.498Z,2.90
2018-04-01T03:48:56.372Z,2.90
2018-04-01T03:52:05.826Z,2.90
2018-04-01T03:55:15.357Z,2.90
2018-04-01T03:58:24.309Z,2.90
2018-04-01T04:01:33.984Z,2.90
2018-04-01T04:04:43.411Z,2.90
2018-04-01T04:07:51.986Z,2.90
2018-04-01T04:11:00.784Z,2.90
2018-04-01T04:14:10.412Z,3.00
2018-04-01T04:17:20.719Z,3.00
2018-04-01T04:20:29.626Z,2.90
2018-04-01T04:23:39.072Z,2.90
2018-04-01T04:26:47.852Z,2.90
2018-04-01T04:29:57.331Z,2.90
2018-04-01T04:33:06.286Z,2.90
2018-04-01T04:36:15.817Z,2.90
2018-04-01T04:39:25.031Z,2.90
2018-04-01T04:42:33.932Z,2.90
2018-04-01T04:45:43.008Z,2.90
2018-04-01T04:48:51.976Z,2.90
2018-04-01T04:52:00.979Z,2.90
2018-04-01T04:55:10.179Z,2.90
2018-04-01T04:58:19.057Z,2.90
2018-04-01T05:01:28.523Z,2.90
2018-04-01T05:04:38.225Z,2.90
2018-04-01T05:07:47.793Z,2.90
2018-04-01T05:10:56.541Z,2.90
2018-04-01T05:14:06.101Z,2.90
2018-04-01T05:17:15.628Z,2.90
2018-04-01T05:20:25.779Z,2.90
2018-04-01T05:23:34.908Z,2.90
2018-04-01T05:26:45.061Z,2.90
2018-04-01T05:29:54.434Z,2.90
2018-04-01T05:33:04.124Z,2.90
2018-04-01T05:36:13.059Z,2.90
2018-04-01T05:39:21.887Z,2.90
2018-04-01T05:42:31.430Z,2.90
2018-04-01T05:45:41.948Z,2.80
2018-04-01T05:48:50.706Z,2.80
2018-04-01T05:52:00.371Z,2.80
2018-04-01T05:55:09.503Z,2.80
2018-04-01T05:58:18.957Z,2.80
2018-04-01T06:01:27.460Z,2.80
2018-04-01T06:04:36.520Z,2.80
2018-04-01T06:07:46.062Z,2.80
2018-04-01T06:10:55.743Z,2.80
2018-04-01T06:14:06.020Z,2.80
2018-04-01T06:17:14.833Z,2.80
2018-04-01T06:20:24.239Z,2.80
2018-04-01T06:23:33.122Z,2.70
2018-04-01T06:26:41.959Z,2.70
2018-04-01T06:29:51.490Z,2.70
2018-04-01T06:33:00.327Z,2.70
2018-04-01T06:36:09.117Z,2.70
2018-04-01T06:39:18.238Z,2.70
2018-04-01T06:42:27.538Z,2.60
2018-04-01T06:45:37.083Z,2.70
2018-04-01T06:48:45.924Z,2.70
2018-04-01T06:51:55.575Z,2.70
2018-04-01T06:55:04.403Z,2.70
2018-04-01T06:58:15.178Z,2.70
2018-04-01T07:01:24.089Z,2.70
2018-04-01T07:04:33.765Z,2.70
2018-04-01T07:07:43.207Z,2.70
2018-04-01T07:10:52.240Z,2.80
2018-04-01T07:14:01.604Z,2.80
2018-04-01T07:17:11.968Z,2.80
2018-04-01T07:20:21.012Z,2.80
2018-04-01T07:23:30.421Z,2.80
2018-04-01T07:26:39.980Z,2.80
2018-04-01T07:29:48.737Z,2.90
2018-04-01T07:32:58.291Z,2.90
2018-04-01T07:36:07.971Z,3.00
2018-04-01T07:39:17.349Z,3.00
2018-04-01T07:42:27.030Z,3.00
2018-04-01T07:45:36.627Z,3.00
2018-04-01T07:48:45.403Z,3.00
2018-04-01T07:51:55.291Z,3.00
2018-04-01T07:55:04.374Z,3.00
2018-04-01T07:58:13.231Z,3.10
2018-04-01T08:01:22.722Z,3.10
2018-04-01T08:04:32.332Z,3.10
2018-04-01T08:07:41.360Z,3.10
2018-04-01T08:10:50.374Z,3.20
2018-04-01T08:13:59.378Z,3.10
2018-04-01T08:17:08.266Z,3.20
2018-04-01T08:20:17.890Z,3.30
2018-04-01T08:23:28.165Z,3.30
2018-04-01T08:26:37.360Z,3.30
2018-04-01T08:29:47.086Z,3.30
2018-04-01T08:32:55.881Z,3.40
2018-04-01T08:36:05.238Z,3.50
2018-04-01T08:39:14.898Z,3.70
2018-04-01T08:42:23.612Z,3.70
2018-04-01T08:45:33.916Z,3.80
2018-04-01T08:48:43.547Z,3.80
2018-04-01T08:51:52.755Z,3.80
2018-04-01T08:55:01.626Z,3.80
2018-04-01T08:58:11.979Z,4.00
2018-04-01T09:01:21.023Z,4.00
2018-04-01T09:04:30.691Z,4.10
2018-04-01T09:07:40.258Z,4.10
2018-04-01T09:10:49.539Z,4.20
2018-04-01T09:13:58.980Z,4.30
2018-04-01T09:17:08.576Z,4.30
2018-04-01T09:20:17.326Z,4.30
2018-04-01T09:23:26.105Z,4.40
2018-04-01T09:26:36.451Z,4.40
2018-04-01T09:29:46.257Z,4.40
2018-04-01T09:32:56.004Z,4.40
2018-04-01T09:36:05.225Z,4.50
2018-04-01T09:39:13.953Z,4.50
2018-04-01T09:42:23.547Z,4.50
2018-04-01T09:45:33.011Z,4.50
2018-04-01T09:48:41.732Z,4.60
2018-04-01T09:51:52.010Z,4.60
2018-04-01T09:55:00.794Z,4.60
2018-04-01T09:58:10.681Z,4.70
2018-04-01T10:01:21.010Z,4.80
2018-04-01T10:04:31.214Z,4.80
2018-04-01T10:07:41.004Z,4.70
2018-04-01T10:10:50.999Z,4.70
2018-04-01T10:14:00.853Z,4.70
2018-04-01T10:17:10.823Z,4.60
2018-04-01T10:20:21.081Z,4.70
2018-04-01T10:23:30.901Z,4.70
2018-04-01T10:26:40.699Z,4.70
2018-04-01T10:29:52.253Z,4.70
2018-04-01T10:33:02.620Z,4.70
2018-04-01T10:36:13.003Z,4.80
2018-04-01T10:39:22.983Z,4.80
2018-04-01T10:42:33.378Z,4.80
2018-04-01T10:45:44.184Z,4.80
2018-04-01T10:48:54.147Z,4.80
2018-04-01T10:52:04.830Z,4.80
2018-04-01T10:55:13.646Z,4.80
2018-04-01T10:58:22.339Z,4.80
2018-04-01T11:01:32.531Z,4.80
2018-04-01T11:04:41.459Z,4.80
2018-04-01T11:07:50.203Z,4.70
2018-04-01T11:10:59.818Z,4.60
2018-04-01T11:14:08.550Z,4.60
2018-04-01T11:17:18.028Z,4.60
2018-04-01T11:20:27.640Z,4.60
2018-04-01T11:23:38.178Z,4.60
2018-04-01T11:26:47.286Z,4.60
2018-04-01T11:29:56.698Z,4.70
2018-04-01T11:33:05.466Z,4.60
2018-04-01T11:36:15.813Z,4.60
2018-04-01T11:39:24.885Z,4.60
2018-04-01T11:42:34.352Z,4.50
2018-04-01T11:45:43.982Z,4.60
2018-04-01T11:48:53.222Z,4.60
2018-04-01T11:52:01.922Z,4.40
2018-04-01T11:55:11.158Z,4.50
2018-04-01T11:58:21.466Z,4.40
2018-04-01T12:01:30.894Z,4.40
2018-04-01T12:04:40.543Z,4.50
2018-04-01T12:07:50.152Z,4.60
2018-04-01T12:10:59.567Z,4.80
2018-04-01T12:14:09.246Z,4.80
2018-04-01T12:17:17.986Z,4.90
2018-04-01T12:20:27.553Z,4.70
2018-04-01T12:23:36.240Z,4.80
2018-04-01T12:26:45.965Z,4.80
2018-04-01T12:29:55.419Z,4.80
2018-04-01T12:33:04.922Z,4.90
2018-04-01T12:36:15.343Z,5.10
2018-04-01T12:39:24.226Z,5.10
2018-04-01T12:42:34.011Z,5.20
2018-04-01T12:45:43.610Z,5.30
2018-04-01T12:48:53.094Z,5.30
2018-04-01T12:52:02.553Z,5.40
2018-04-01T12:55:12.181Z,5.40
2018-04-01T12:58:20.985Z,5.50
2018-04-01T13:01:29.722Z,5.40
2018-04-01T13:04:38.576Z,5.60
2018-04-01T13:07:47.431Z,5.60
2018-04-01T13:10:57.086Z,5.70
2018-04-01T13:14:06.320Z,5.70
2018-04-01T13:17:15.059Z,5.70
2018-04-01T13:20:24.566Z,5.70
2018-04-01T13:23:34.362Z,5.80
2018-04-01T13:26:43.854Z,5.80
2018-04-01T13:29:53.555Z,5.80
2018-04-01T13:33:03.130Z,5.80
2018-04-01T13:36:12.844Z,5.80
2018-04-01T13:39:21.594Z,5.80
2018-04-01T13:42:31.114Z,5.80
2018-04-01T13:45:40.628Z,5.80
2018-04-01T13:48:50.371Z,5.80
2018-04-01T13:51:59.757Z,5.90
2018-04-01T13:55:09.953Z,5.90
2018-04-01T13:58:19.003Z,5.90
2018-04-01T14:01:28.514Z,5.80
2018-04-01T14:04:38.233Z,5.80
2018-04-01T14:07:47.168Z,5.80
2018-04-01T14:10:56.821Z,5.90
2018-04-01T14:14:05.887Z,5.90
2018-04-01T14:17:14.788Z,5.90
2018-04-01T14:20:23.687Z,5.90
2018-04-01T14:23:33.661Z,5.90
2018-04-01T14:26:42.547Z,5.80
2018-04-01T14:29:51.431Z,5.90
2018-04-01T14:33:01.052Z,5.80
2018-04-01T14:36:10.608Z,5.80
2018-04-01T14:39:19.362Z,5.80
2018-04-01T14:42:28.163Z,5.80
2018-04-01T14:45:37.718Z,5.80
2018-04-01T14:48:47.393Z,5.70
2018-04-01T14:51:56.943Z,5.70
2018-04-01T14:55:07.332Z,5.80
2018-04-01T14:58:16.206Z,5.80
2018-04-01T15:01:25.906Z,5.80
2018-04-01T15:04:35.562Z,5.80
2018-04-01T15:07:45.183Z,5.80
2018-04-01T15:10:55.470Z,5.80
2018-04-01T15:14:04.446Z,5.80
2018-04-01T15:17:14.060Z,5.80
2018-04-01T15:20:22.827Z,5.70
2018-04-01T15:23:32.545Z,5.70
2018-04-01T15:26:41.300Z,5.60
2018-04-01T15:29:50.963Z,5.50
2018-04-01T15:32:59.672Z,5.50
2018-04-01T15:36:10.264Z,5.40
2018-04-01T15:39:20.340Z,5.40
2018-04-01T15:42:30.027Z,5.40
2018-04-01T15:45:39.130Z,5.40
2018-04-01T15:48:49.352Z,5.40
2018-04-01T15:51:58.204Z,5.40
2018-04-01T15:55:07.032Z,5.40
2018-04-01T15:58:15.876Z,5.20
2018-04-01T16:01:24.940Z,4.90
2018-04-01T16:04:34.440Z,4.70
2018-04-01T16:07:43.254Z,4.70
2018-04-01T16:10:52.810Z,4.60
2018-04-01T16:14:01.697Z,4.50
2018-04-01T16:17:11.304Z,4.50
2018-04-01T16:20:20.825Z,4.40
2018-04-01T16:23:30.286Z,4.30
2018-04-01T16:26:39.348Z,4.30
2018-04-01T16:29:48.066Z,4.10
2018-04-01T16:32:56.904Z,4.10
2018-04-01T16:36:05.832Z,4.00
2018-04-01T16:39:15.480Z,4.00
2018-04-01T16:42:25.142Z,4.10
2018-04-01T16:45:34.708Z,4.00
2018-04-01T16:48:44.227Z,3.90
2018-04-01T16:51:53.786Z,4.00
2018-04-01T16:55:02.800Z,4.00
2018-04-01T16:58:12.404Z,3.90
2018-04-01T17:01:21.948Z,3.80
2018-04-01T17:04:30.937Z,3.80
2018-04-01T17:07:40.577Z,3.80
2018-04-01T17:10:50.103Z,3.80
2018-04-01T17:13:58.884Z,3.80
2018-04-01T17:17:07.679Z,3.80
2018-04-01T17:20:17.614Z,3.80
2018-04-01T17:23:27.226Z,3.80
2018-04-01T17:26:37.507Z,3.80
2018-04-01T17:29:46.516Z,3.80
2018-04-01T17:32:55.620Z,3.70
2018-04-01T17:36:05.273Z,3.70
2018-04-01T17:39:15.124Z,3.60
2018-04-01T17:42:24.879Z,3.60
2018-04-01T17:45:33.872Z,3.60
2018-04-01T17:48:44.398Z,3.60
2018-04-01T17:51:53.272Z,3.60
2018-04-01T17:55:02.857Z,3.60
2018-04-01T17:58:12.509Z,3.60
2018-04-01T18:01:22.078Z,3.60
2018-04-01T18:04:30.878Z,3.70
2018-04-01T18:07:39.996Z,3.70
2018-04-01T18:10:48.940Z,3.70
2018-04-01T18:13:58.502Z,3.70
2018-04-01T18:17:08.148Z,3.70
2018-04-01T18:20:17.093Z,3.70
2018-04-01T18:23:25.917Z,3.60
2018-04-01T18:26:34.874Z,3.60
2018-04-01T18:29:43.622Z,3.60
2018-04-01T18:32:53.161Z,3.50
2018-04-01T18:36:02.812Z,3.50
2018-04-01T18:39:12.352Z,3.50
2018-04-01T18:42:21.153Z,3.40
2018-04-01T18:45:30.618Z,3.40
2018-04-01T18:48:40.097Z,3.40
2018-04-01T18:51:49.803Z,3.30
2018-04-01T18:54:58.489Z,3.30
2018-04-01T18:58:08.003Z,3.30
2018-04-01T19:01:17.100Z,3.20
2018-04-01T19:04:26.712Z,3.20
2018-04-01T19:07:36.197Z,3.20
2018-04-01T19:10:45.259Z,3.20
2018-04-01T19:13:54.836Z,3.20
2018-04-01T19:17:09.217Z,3.20
2018-04-01T19:20:19.366Z,3.10
2018-04-01T19:23:29.062Z,3.10
2018-04-01T19:26:39.079Z,3.10
2018-04-01T19:29:49.782Z,3.10
2018-04-01T19:32:59.717Z,3.10
2018-04-01T19:36:09.624Z,3.10
2018-04-01T19:39:19.499Z,3.10
2018-04-01T19:42:30.334Z,3.10
2018-04-01T19:45:41.084Z,3.00
2018-04-01T19:48:50.994Z,3.00
2018-04-01T19:52:00.623Z,2.90
2018-04-01T19:55:10.904Z,2.80
2018-04-01T19:58:20.759Z,2.80
2018-04-01T20:01:31.513Z,2.70
2018-04-01T20:04:41.389Z,2.80
2018-04-01T20:07:51.013Z,2.70
2018-04-01T20:11:00.995Z,2.70
2018-04-01T20:14:11.704Z,2.70
2018-04-01T20:17:22.228Z,2.60
2018-04-01T20:20:32.635Z,2.70
2018-04-01T20:23:43.166Z,2.60
2018-04-01T20:26:53.489Z,2.60
2018-04-01T20:30:03.677Z,2.60
2018-04-01T20:33:13.630Z,2.60
2018-04-01T20:36:23.550Z,2.60
2018-04-01T20:39:33.354Z,2.60
2018-04-01T20:42:43.134Z,2.60
2018-04-01T20:45:52.800Z,2.60
2018-04-01T20:49:04.604Z,2.60
2018-04-01T20:52:15.296Z,2.60
2018-04-01T20:55:25.129Z,2.70
2018-04-01T20:58:35.200Z,2.60
2018-04-01T21:01:45.126Z,2.60
2018-04-01T21:04:55.848Z,2.70
2018-04-01T21:08:06.492Z,2.60
2018-04-01T21:11:16.380Z,2.70
2018-04-01T21:14:27.770Z,2.70
2018-04-01T21:17:37.909Z,2.60
2018-04-01T21:20:48.587Z,2.70
2018-04-01T21:23:58.579Z,2.70
2018-04-01T21:27:08.660Z,2.70
2018-04-01T21:30:19.398Z,2.60
2018-04-01T21:33:29.873Z,2.60
2018-04-01T21:36:39.731Z,2.60
2018-04-01T21:39:49.811Z,2.60
2018-04-01T21:43:00.542Z,2.70
2018-04-01T21:46:10.347Z,2.70
2018-04-01T21:49:21.083Z,2.60
2018-04-01T21:52:31.011Z,2.70
2018-04-01T21:55:41.083Z,2.70
2018-04-01T21:58:50.994Z,2.70
2018-04-01T22:02:01.661Z,2.70
2018-04-01T22:05:11.745Z,2.70
2018-04-01T22:08:22.398Z,2.50
2018-04-01T22:11:32.260Z,2.40
2018-04-01T22:14:42.975Z,2.50
2018-04-01T22:17:55.289Z,2.50
2018-04-01T22:21:05.648Z,2.50
2018-04-01T22:24:16.339Z,2.50
2018-04-01T22:27:26.308Z,2.50
2018-04-01T22:30:36.286Z,2.40
2018-04-01T22:33:47.018Z,2.40
2018-04-01T22:36:56.934Z,2.40
2018-04-01T22:40:07.095Z,2.30
2018-04-01T22:43:17.062Z,2.30
2018-04-01T22:46:28.145Z,2.30
2018-04-01T22:49:39.943Z,2.40
2018-04-01T22:52:50.331Z,2.30
2018-04-01T22:56:00.241Z,2.40
2018-04-01T22:59:10.156Z,2.40
2018-04-01T23:02:20.227Z,2.40
2018-04-01T23:05:30.922Z,2.50
2018-04-01T23:08:40.967Z,2.40
2018-04-01T23:11:51.126Z,2.50
2018-04-01T23:15:01.193Z,2.50
2018-04-01T23:18:11.217Z,2.40
2018-04-01T23:21:21.896Z,2.40
2018-04-01T23:24:31.764Z,2.40
2018-04-01T23:27:41.813Z,2.40
2018-04-01T23:30:52.459Z,2.40
2018-04-01T23:34:02.701Z,2.40
2018-04-01T23:37:12.845Z,2.40
2018-04-01T23:40:22.570Z,2.40
2018-04-01T23:43:32.628Z,2.40
2018-04-01T23:46:42.428Z,2.40
2018-04-01T23:49:52.823Z,2.40
2018-04-01T23:53:03.501Z,2.40
2018-04-01T23:56:13.422Z,2.40
2018-04-01T23:59:23.281Z,2.40
